Time;durP1;ratioP1;P1;durP2;ratioP2;P2;SDS_P1;SDS_P2;PMS_P1;PMS_P2;Temp;Humidity;BMP_temperature;BMP_pressure;BME280_temperature;BME280_humidity;BME280_pressure;Samples;Min_cycle;Max_cycle;Signal;HPM_P1;HPM_P2
2024/02/07 00:01:05;;;;;;;6.05;2.42;;;;;;;11.19;55.69;98832.22;4938994;28;96938;-74
2024/02/07 00:03:30;;;;;;;9.75;1.85;;;;;;;11.26;55.41;98841.44;4948337;28;97751;-75
2024/02/07 00:05:56;;;;;;;9.10;2.67;;;;;;;11.29;55.17;98832.53;4954142;28;97737;-75
2024/02/07 00:08:21;;;;;;;5.15;2.28;;;;;;;11.35;55.64;98832.16;4937563;28;101408;-74
2024/02/07 00:10:47;;;;;;;5.93;2.60;;;;;;;11.39;55.06;98825.78;4954403;28;96750;-74
2024/02/07 00:13:12;;;;;;;5.55;2.05;;;;;;;11.33;55.49;98821.72;4955088;28;96879;-74
2024/02/07 00:15:38;;;;;;;4.75;1.90;;;;;;;11.39;55.12;98819.66;4952676;28;101277;-74
2024/02/07 00:18:03;;;;;;;5.35;2.20;;;;;;;11.40;55.23;98822.19;4954104;28;100118;-74
2024/02/07 00:20:29;;;;;;;7.85;2.90;;;;;;;11.26;55.77;98819.59;4953971;28;96835;-74
2024/02/07 00:22:54;;;;;;;7.57;2.33;;;;;;;11.26;55.15;98809.91;4952011;28;96856;-74
2024/02/07 00:25:20;;;;;;;8.93;1.98;;;;;;;11.25;55.71;98808.22;4934579;28;101084;-74
2024/02/07 00:27:45;;;;;;;4.85;1.90;;;;;;;11.35;54.97;98812.94;4946643;28;101495;-74
2024/02/07 00:30:11;;;;;;;5.00;1.95;;;;;;;11.30;55.52;98811.41;4953999;28;97085;-77
2024/02/07 00:32:37;;;;;;;4.22;1.70;;;;;;;11.35;55.56;98807.69;4954381;28;97486;-75
2024/02/07 00:35:02;;;;;;;5.65;2.03;;;;;;;11.33;55.33;98808.59;4970743;28;98082;-75
2024/02/07 00:37:28;;;;;;;7.00;1.98;;;;;;;11.28;55.15;98815.91;4953610;28;98360;-74
2024/02/07 00:39:53;;;;;;;3.75;1.92;;;;;;;11.25;55.57;98812.63;4955153;28;97319;-74
2024/02/07 00:42:19;;;;;;;7.68;2.17;;;;;;;11.33;55.27;98811.22;4943663;28;96948;-74
2024/02/07 00:44:44;;;;;;;4.68;2.08;;;;;;;11.24;55.35;98806.53;4956718;28;99566;-75
2024/02/07 00:47:11;;;;;;;4.25;1.75;;;;;;;11.23;55.88;98801.38;4949918;28;97182;-74
2024/02/07 00:49:37;;;;;;;6.38;1.70;;;;;;;11.25;55.62;98799.50;4957165;28;96807;-76
2024/02/07 00:52:03;;;;;;;3.92;1.42;;;;;;;11.23;55.60;98790.88;4974649;28;96914;-75
2024/02/07 00:54:29;;;;;;;5.47;2.08;;;;;;;11.23;55.72;98794.34;4958343;28;101669;-75
2024/02/07 00:56:55;;;;;;;4.40;1.52;;;;;;;11.20;55.91;98793.66;4956045;28;101013;-74
2024/02/07 00:59:21;;;;;;;7.38;1.88;;;;;;;11.18;55.59;98777.19;4940820;28;97317;-74
2024/02/07 01:01:47;;;;;;;4.32;1.60;;;;;;;11.12;55.92;98781.00;4967351;28;96824;-75
2024/02/07 01:04:12;;;;;;;9.60;1.80;;;;;;;11.14;55.87;98765.16;4973595;28;97429;-75
2024/02/07 01:06:39;;;;;;;4.88;1.95;;;;;;;11.18;55.62;98771.94;4957043;28;100964;-75
2024/02/07 01:09:05;;;;;;;6.25;1.58;;;;;;;11.12;55.91;98770.50;4924577;28;97392;-75
2024/02/07 01:11:30;;;;;;;6.80;1.88;;;;;;;11.14;55.71;98766.03;4937590;28;97526;-75
2024/02/07 01:13:56;;;;;;;3.53;1.52;;;;;;;11.08;55.79;98756.72;4968123;28;97921;-75
2024/02/07 01:16:22;;;;;;;6.03;2.10;;;;;;;11.02;55.68;98762.31;4938814;28;100656;-75
2024/02/07 01:18:50;;;;;;;3.47;1.60;;;;;;;11.05;55.44;98764.78;4971861;28;96745;-75
2024/02/07 01:21:16;;;;;;;5.13;1.63;;;;;;;11.06;55.91;98763.84;4940308;28;96936;-74
2024/02/07 01:23:45;;;;;;;4.63;1.58;;;;;;;11.08;55.48;98761.13;4955805;28;97554;-75
2024/02/07 01:26:13;;;;;;;2.47;1.60;;;;;;;11.05;55.80;98763.94;4973087;28;97393;-75
2024/02/07 01:28:39;;;;;;;4.00;2.00;;;;;;;11.04;55.82;98763.09;4972651;28;97107;-74
2024/02/07 01:31:05;;;;;;;5.88;1.52;;;;;;;11.00;55.81;98755.50;4961408;28;97086;-75
2024/02/07 01:33:31;;;;;;;4.72;1.83;;;;;;;11.03;55.79;98768.44;4956918;28;97960;-75
2024/02/07 01:35:56;;;;;;;4.15;1.77;;;;;;;10.98;55.96;98755.59;4956098;28;100776;-76
2024/02/07 01:38:22;;;;;;;6.40;1.88;;;;;;;11.03;55.57;98756.16;4955732;28;97292;-75
2024/02/07 01:40:49;;;;;;;4.00;1.88;;;;;;;11.02;55.90;98741.31;4973122;28;96852;-74
2024/02/07 01:43:14;;;;;;;3.38;1.38;;;;;;;11.01;56.08;98755.41;4940078;28;101775;-74
2024/02/07 01:45:40;;;;;;;4.15;1.80;;;;;;;11.05;55.54;98735.91;4955096;28;101559;-74
2024/02/07 01:48:09;;;;;;;5.05;1.73;;;;;;;10.98;55.99;98737.22;4950269;28;97419;-74
2024/02/07 01:50:37;;;;;;;3.38;1.70;;;;;;;10.99;55.89;98736.25;4972788;28;96788;-74
2024/02/07 01:53:04;;;;;;;3.83;1.52;;;;;;;11.08;56.09;98729.59;4956637;28;98119;-75
2024/02/07 01:55:31;;;;;;;5.72;2.15;;;;;;;11.06;56.00;98723.63;4972591;28;97570;-74
2024/02/07 01:57:58;;;;;;;5.32;1.73;;;;;;;11.06;56.05;98734.97;4936088;28;97272;-75
2024/02/07 02:00:24;;;;;;;6.50;2.65;;;;;;;11.02;55.85;98722.94;4956742;28;97266;-75
2024/02/07 02:02:51;;;;;;;5.65;2.13;;;;;;;11.04;55.91;98721.06;4970917;28;97463;-74
2024/02/07 02:05:17;;;;;;;6.90;1.75;;;;;;;10.98;56.13;98712.75;4955902;28;97727;-75
2024/02/07 02:07:42;;;;;;;7.45;2.10;;;;;;;10.99;56.17;98709.16;4939007;28;96855;-74
2024/02/07 02:10:10;;;;;;;4.38;1.63;;;;;;;11.04;56.00;98715.00;4953284;28;97131;-75
2024/02/07 02:12:36;;;;;;;7.45;2.30;;;;;;;11.01;55.71;98705.50;4966485;28;101472;-74
2024/02/07 02:15:03;;;;;;;3.20;1.63;;;;;;;11.02;55.94;98701.94;4940243;28;101323;-74
2024/02/07 02:17:28;;;;;;;4.88;2.08;;;;;;;11.06;55.87;98698.19;4971597;28;96769;-74
2024/02/07 02:19:54;;;;;;;3.28;1.60;;;;;;;11.04;55.52;98701.84;4955110;28;96935;-74
2024/02/07 02:22:32;;;;;;;3.97;1.42;;;;;;;11.02;55.85;98695.84;4955105;28;101078;-75
2024/02/07 02:25:31;;;;;;;5.80;1.67;;;;;;;11.02;55.97;98693.22;4952900;28;98320;-75
2024/02/07 02:28:04;;;;;;;5.95;2.78;;;;;;;11.08;55.66;98683.22;4965567;28;97120;-74
2024/02/07 02:30:33;;;;;;;5.07;1.98;;;;;;;11.07;55.94;98681.50;4973351;28;96790;-75
2024/02/07 02:33:08;;;;;;;3.95;1.77;;;;;;;11.02;55.60;98673.06;4955494;28;101497;-75
2024/02/07 02:35:35;;;;;;;5.38;2.35;;;;;;;10.96;56.13;98669.97;4947053;28;101522;-75
2024/02/07 02:38:01;;;;;;;3.20;1.35;;;;;;;10.98;56.39;98670.72;4948920;28;96776;-74
2024/02/07 02:40:29;;;;;;;7.10;2.08;;;;;;;11.02;56.33;98667.81;4972330;28;96785;-75
2024/02/07 02:42:57;;;;;;;4.95;2.20;;;;;;;10.91;56.50;98659.78;4956118;28;97628;-75
2024/02/07 02:45:23;;;;;;;3.67;2.03;;;;;;;11.00;56.03;98664.44;4955308;28;98120;-75
2024/02/07 02:47:48;;;;;;;5.25;1.33;;;;;;;11.01;56.45;98660.03;4939151;28;97159;-74
2024/02/07 02:50:16;;;;;;;4.15;1.63;;;;;;;11.05;56.25;98659.75;4955472;28;96870;-76
2024/02/07 02:52:42;;;;;;;6.95;1.60;;;;;;;11.06;55.88;98648.31;4954939;28;101187;-75
2024/02/07 02:55:08;;;;;;;5.78;1.88;;;;;;;10.99;56.38;98649.63;4955800;28;101635;-76
2024/02/07 02:57:34;;;;;;;3.67;2.05;;;;;;;11.07;55.94;98647.38;4971949;28;97396;-75
2024/02/07 03:00:06;;;;;;;3.88;1.50;;;;;;;11.11;56.35;98650.63;4936712;28;96778;-76
2024/02/07 03:02:35;;;;;;;5.22;1.80;;;;;;;11.12;56.10;98635.75;4940759;28;101258;-75
2024/02/07 03:05:02;;;;;;;5.95;1.55;;;;;;;11.07;56.24;98643.91;4935897;28;101086;-74
2024/02/07 03:07:54;;;;;;;5.32;1.60;;;;;;;10.92;56.68;98643.06;4938134;28;97356;-74
2024/02/07 03:10:21;;;;;;;8.38;2.38;;;;;;;10.97;57.00;98638.38;4938911;28;96847;-78
2024/02/07 03:12:46;;;;;;;4.80;1.88;;;;;;;10.99;56.86;98636.50;4953821;28;101521;-74
2024/02/07 03:15:12;;;;;;;3.08;1.35;;;;;;;11.03;57.04;98626.66;4955370;28;97383;-75
2024/02/07 03:17:37;;;;;;;4.72;1.92;;;;;;;11.06;57.14;98629.94;4971962;28;97874;-76
2024/02/07 03:20:05;;;;;;;8.18;1.60;;;;;;;11.01;56.97;98626.75;4955066;28;97123;-74
2024/02/07 03:22:30;;;;;;;3.28;1.70;;;;;;;10.96;57.01;98614.84;4955170;28;97688;-74
2024/02/07 03:24:56;;;;;;;8.85;2.40;;;;;;;10.99;57.03;98619.91;4938389;28;101234;-74
2024/02/07 03:27:22;;;;;;;6.95;1.67;;;;;;;10.94;57.32;98620.19;4953407;28;96824;-74
2024/02/07 03:29:47;;;;;;;4.35;1.80;;;;;;;10.93;57.19;98601.91;4926125;28;97020;-75
2024/02/07 03:32:14;;;;;;;3.72;2.35;;;;;;;10.86;57.89;98606.72;4970972;28;97457;-74
2024/02/07 03:34:41;;;;;;;8.85;3.08;;;;;;;10.92;57.56;98597.59;4955094;28;99244;-74
2024/02/07 03:37:06;;;;;;;4.25;2.55;;;;;;;10.95;57.59;98594.78;4951330;28;97189;-74
2024/02/07 03:39:32;;;;;;;8.48;2.38;;;;;;;10.99;57.26;98601.53;4940384;28;97009;-74
2024/02/07 03:41:58;;;;;;;5.03;2.35;;;;;;;10.94;57.55;98595.72;4950020;28;100913;-74
2024/02/07 03:44:23;;;;;;;7.63;1.80;;;;;;;10.94;57.26;98583.44;4963291;28;100824;-75
2024/02/07 03:46:50;;;;;;;5.68;1.98;;;;;;;10.86;57.60;98581.28;4941915;28;96742;-74
2024/02/07 03:49:16;;;;;;;5.47;2.42;;;;;;;10.84;57.36;98570.03;4954689;28;97189;-75
2024/02/07 03:51:41;;;;;;;4.53;2.13;;;;;;;10.85;57.46;98568.28;4937929;28;101296;-75
2024/02/07 03:54:09;;;;;;;4.57;2.10;;;;;;;10.84;57.53;98566.56;4972718;28;97978;-75
2024/02/07 03:56:35;;;;;;;6.57;2.25;;;;;;;10.92;57.54;98558.22;4965126;28;96930;-75
2024/02/07 03:59:02;;;;;;;4.35;1.70;;;;;;;10.87;57.62;98550.63;4938153;28;97229;-75
2024/02/07 04:01:31;;;;;;;6.82;2.20;;;;;;;10.95;57.77;98555.41;4954254;28;97459;-75
2024/02/07 04:03:57;;;;;;;6.63;2.13;;;;;;;10.95;58.15;98553.63;4970558;28;97466;-74
2024/02/07 04:06:23;;;;;;;5.95;2.88;;;;;;;10.85;58.02;98548.13;4953917;28;97410;-75
2024/02/07 04:08:48;;;;;;;8.25;3.13;;;;;;;10.91;57.96;98546.91;4937271;28;97346;-74
2024/02/07 05:16:23;;;;;;;4.07;1.83;;;;;;;11.04;56.83;98497.06;4955579;28;97961;-76
2024/02/07 05:18:48;;;;;;;4.60;1.70;;;;;;;11.05;56.95;98493.47;4953898;28;97377;-75
2024/02/07 05:21:14;;;;;;;2.40;1.35;;;;;;;11.08;56.98;98485.41;4969528;28;97323;-74
2024/02/07 05:23:40;;;;;;;3.42;1.63;;;;;;;11.07;56.99;98491.59;4967932;28;96815;-75
2024/02/07 05:26:06;;;;;;;5.07;1.40;;;;;;;11.09;57.20;98477.44;4957455;28;101311;-74
2024/02/07 05:28:31;;;;;;;2.75;1.40;;;;;;;11.14;57.25;98486.78;4955649;28;101161;-74
2024/02/07 05:30:57;;;;;;;3.92;1.60;;;;;;;11.13;57.37;98485.13;4956446;28;97206;-75
2024/02/07 05:33:22;;;;;;;3.15;1.25;;;;;;;11.07;57.12;98474.06;4973578;28;96942;-74
2024/02/07 05:35:48;;;;;;;3.45;1.50;;;;;;;11.08;57.25;98473.13;4942071;28;101110;-75
2024/02/07 05:38:13;;;;;;;4.20;1.90;;;;;;;10.99;57.87;98493.88;4948534;28;98125;-75
2024/02/07 05:40:39;;;;;;;2.58;1.73;;;;;;;11.03;57.56;98482.25;4938881;28;97036;-75
2024/02/07 05:43:05;;;;;;;4.70;1.63;;;;;;;10.98;58.13;98482.53;4940171;28;96959;-76
2024/02/07 05:45:31;;;;;;;2.38;1.17;;;;;;;10.95;57.69;98479.28;4938955;28;101257;-75
2024/02/07 05:47:56;;;;;;;4.43;1.92;;;;;;;10.96;57.70;98487.03;4948264;28;98605;-75
2024/02/07 05:50:22;;;;;;;5.35;1.83;;;;;;;10.88;57.46;98481.47;4964704;28;97357;-74
2024/02/07 05:52:47;;;;;;;2.63;1.33;;;;;;;10.96;57.66;98483.56;4962929;28;96920;-73
2024/02/07 05:55:13;;;;;;;3.47;1.67;;;;;;;10.92;57.61;98493.44;4975008;28;98695;-74
2024/02/07 05:57:39;;;;;;;2.53;1.30;;;;;;;10.92;57.69;98488.19;4967034;28;101105;-76
2024/02/07 06:00:06;;;;;;;4.05;1.45;;;;;;;10.97;57.58;98486.13;4958369;28;96885;-75
2024/02/07 06:02:37;;;;;;;3.42;1.40;;;;;;;10.89;57.05;98488.38;4957600;28;97373;-75
2024/02/07 06:05:05;;;;;;;10.90;1.95;;;;;;;10.93;57.40;98492.50;4957449;28;101359;-74
2024/02/07 06:07:31;;;;;;;3.38;1.48;;;;;;;10.95;57.36;98481.91;4942446;28;100531;-74
2024/02/07 06:09:57;;;;;;;5.22;2.45;;;;;;;11.06;56.71;98493.41;4933555;28;96853;-74
2024/02/07 06:12:23;;;;;;;6.32;1.92;;;;;;;10.97;57.17;98485.28;4963003;28;96831;-80
2024/02/07 06:14:48;;;;;;;9.25;1.75;;;;;;;10.95;56.76;98481.91;4975741;28;100453;-80
2024/02/07 06:17:14;;;;;;;3.13;1.40;;;;;;;10.94;57.13;98483.69;4968151;28;99471;-80
2024/02/07 06:19:39;;;;;;;4.10;1.75;;;;;;;10.95;56.89;98484.53;5005856;28;96758;-80
2024/02/07 06:22:05;;;;;;;3.28;1.52;;;;;;;10.97;56.93;98478.25;4977822;28;96855;-80
2024/02/07 06:24:31;;;;;;;5.90;1.90;;;;;;;10.95;56.90;98477.50;4973067;28;100545;-80
2024/02/07 06:26:58;;;;;;;2.42;1.45;;;;;;;11.02;56.83;98486.63;4981104;28;100588;-80
2024/02/07 06:29:23;;;;;;;2.70;1.40;;;;;;;10.97;57.11;98472.16;4947358;28;96904;-80
2024/02/07 06:31:49;;;;;;;2.92;1.45;;;;;;;10.91;56.87;98476.03;4988237;28;97383;-79
2024/02/07 06:34:14;;;;;;;2.72;1.15;;;;;;;11.01;56.61;98471.00;4943919;28;101134;-80
2024/02/07 06:36:40;;;;;;;2.05;1.20;;;;;;;11.01;56.67;98471.00;4963114;28;99918;-80
2024/02/07 06:39:05;;;;;;;2.78;1.48;;;;;;;11.04;56.13;98473.44;4951671;28;97343;-80
2024/02/07 06:41:31;;;;;;;3.45;1.60;;;;;;;11.00;56.43;98477.19;4977324;28;96929;-80
2024/02/07 06:43:57;;;;;;;5.90;1.77;;;;;;;10.98;56.66;98481.69;4951631;28;98593;-80
2024/02/07 06:46:23;;;;;;;5.15;2.10;;;;;;;11.03;56.83;98477.84;4963860;28;99361;-80
2024/02/07 06:48:49;;;;;;;7.05;1.80;;;;;;;11.02;56.22;98476.13;4963462;28;97034;-80
2024/02/07 06:51:14;;;;;;;5.97;1.80;;;;;;;11.10;55.80;98473.03;4963990;28;96962;-80
2024/02/07 06:53:40;;;;;;;3.65;1.08;;;;;;;11.15;56.27;98480.63;4954246;28;101111;-75
2024/02/07 06:56:06;;;;;;;1.88;1.15;;;;;;;11.05;56.34;98477.72;4981308;28;96708;-80
2024/02/07 06:58:32;;;;;;;8.07;1.52;;;;;;;11.16;56.33;98477.03;4963577;28;97452;-79
2024/02/07 07:00:58;;;;;;;2.22;1.55;;;;;;;11.13;56.36;98477.25;4949346;28;97653;-79
2024/02/07 07:03:26;;;;;;;2.15;1.30;;;;;;;11.10;55.86;98471.22;4981118;28;101000;-80
2024/02/07 07:05:51;;;;;;;3.50;1.17;;;;;;;11.12;56.30;98473.78;4957616;28;101104;-79
2024/02/07 07:08:17;;;;;;;3.03;1.20;;;;;;;11.13;56.08;98478.06;4938704;28;97117;-80
2024/02/07 07:10:42;;;;;;;5.40;1.30;;;;;;;11.17;56.10;98474.31;4964671;28;96851;-80
2024/02/07 07:13:08;;;;;;;6.38;1.30;;;;;;;11.19;56.03;98476.81;4968525;28;101366;-80
2024/02/07 07:15:35;;;;;;;4.00;1.08;;;;;;;11.16;56.12;98477.03;4956315;28;96907;-80
2024/02/07 07:18:01;;;;;;;2.97;1.48;;;;;;;11.12;56.38;98476.41;4971349;28;96771;-80
2024/02/07 07:20:30;;;;;;;3.03;1.55;;;;;;;11.15;56.02;98470.94;5198036;22;98364;-81
2024/02/07 07:22:57;;;;;;;3.55;1.50;;;;;;;11.12;56.02;98479.03;4938155;28;99760;-81
2024/02/07 07:25:28;;;;;;;5.72;1.95;;;;;;;11.18;56.29;98480.41;4932195;28;98842;-80
2024/02/07 07:27:54;;;;;;;2.00;1.20;;;;;;;11.20;56.11;98476.75;4926114;28;96658;-80
2024/02/07 07:30:20;;;;;;;7.95;1.85;;;;;;;11.19;56.21;98474.19;4937356;28;96692;-80
2024/02/07 07:32:47;;;;;;;1.85;1.08;;;;;;;11.22;56.21;98479.25;4901706;28;97905;-78
2024/02/07 07:35:13;;;;;;;6.68;1.40;;;;;;;11.26;56.38;98478.13;4902475;28;101282;-79
2024/02/07 07:37:38;;;;;;;3.20;1.45;;;;;;;11.23;55.96;98473.91;4919050;28;96752;-80
2024/02/07 07:40:12;;;;;;;5.88;1.15;;;;;;;11.16;56.13;98466.53;4931548;28;96919;-78
2024/02/07 07:42:38;;;;;;;4.22;1.25;;;;;;;11.23;56.10;98460.78;4917130;28;101933;-77
2024/02/07 07:45:03;;;;;;;6.10;1.85;;;;;;;11.32;56.22;98469.84;4933434;28;97523;-78
2024/02/07 07:47:30;;;;;;;2.85;1.20;;;;;;;11.33;56.07;98472.34;4915702;28;97847;-77
2024/02/07 07:49:56;;;;;;;2.92;1.20;;;;;;;11.40;56.07;98470.16;4915758;28;96898;-76
2024/02/07 07:52:21;;;;;;;5.35;1.25;;;;;;;11.37;55.99;98461.63;4916699;28;97951;-77
2024/02/07 07:54:47;;;;;;;3.17;1.13;;;;;;;11.33;56.57;98467.09;4930395;28;97929;-77
2024/02/07 07:57:12;;;;;;;2.20;1.33;;;;;;;11.40;55.90;98467.50;4913280;28;96834;-77
2024/02/07 07:59:39;;;;;;;4.20;1.92;;;;;;;11.45;56.12;98467.22;4898707;28;96934;-76
2024/02/07 08:02:04;;;;;;;7.60;1.73;;;;;;;11.33;56.39;98466.25;4900162;28;101462;-78
2024/02/07 08:04:30;;;;;;;5.78;1.67;;;;;;;11.30;56.44;98469.09;4912876;28;97892;-79
2024/02/07 08:06:57;;;;;;;4.32;1.65;;;;;;;11.27;56.44;98464.03;4914266;28;97380;-76
2024/02/07 08:09:22;;;;;;;2.53;1.30;;;;;;;11.26;56.11;98476.34;4914958;28;97079;-75
2024/02/07 08:11:48;;;;;;;2.83;1.42;;;;;;;11.33;56.61;98476.75;4917328;28;98043;-76
2024/02/07 08:14:14;;;;;;;5.93;1.20;;;;;;;11.38;56.11;98465.97;4907366;28;97847;-76
2024/02/07 08:16:41;;;;;;;1.20;1.00;;;;;;;11.39;56.50;98465.00;4923349;28;97646;-77
2024/02/07 08:19:06;;;;;;;1.20;0.90;;;;;;;11.29;56.95;98472.66;4928268;28;97381;-77
2024/02/07 08:21:32;;;;;;;1.13;0.80;;;;;;;11.29;57.04;98475.28;4911293;28;97950;-76
2024/02/07 08:23:58;;;;;;;2.95;1.00;;;;;;;11.33;57.20;98477.59;4895293;28;98009;-78
2024/02/07 08:26:24;;;;;;;2.38;1.20;;;;;;;11.28;57.46;98471.81;4925989;28;97393;-77
2024/02/07 08:28:56;;;;;;;5.32;0.90;;;;;;;11.23;58.13;98470.44;4926434;28;96893;-78
2024/02/07 08:31:22;;;;;;;2.17;0.95;;;;;;;11.22;58.70;98476.63;4914025;28;98037;-78
2024/02/07 08:33:47;;;;;;;4.15;1.17;;;;;;;11.14;59.12;98474.53;4925628;28;97873;-79
2024/02/07 08:36:13;;;;;;;2.70;0.98;;;;;;;11.12;59.71;98484.28;4933272;28;96926;-78
2024/02/07 08:38:38;;;;;;;2.83;1.10;;;;;;;11.15;59.98;98510.34;4928245;28;96903;-76
2024/02/07 08:41:04;;;;;;;7.95;1.40;;;;;;;11.25;60.55;98535.03;4928940;28;97388;-77
2024/02/07 08:43:29;;;;;;;3.00;0.80;;;;;;;11.24;61.97;98551.75;4924275;28;97267;-76
2024/02/07 08:45:55;;;;;;;3.25;1.10;;;;;;;11.16;62.34;98559.28;4923108;28;97351;-77
2024/02/07 08:48:20;;;;;;;1.65;0.82;;;;;;;11.12;62.39;98565.69;4923505;28;96835;-78
2024/02/07 08:50:46;;;;;;;0.93;0.70;;;;;;;11.00;62.68;98561.22;4925570;28;97972;-77
2024/02/07 08:53:14;;;;;;;2.28;0.70;;;;;;;11.03;62.57;98553.97;4918595;28;97979;-78
2024/02/07 08:55:40;;;;;;;0.50;0.50;;;;;;;10.96;63.28;98557.09;4922311;28;97217;-78
2024/02/07 08:58:05;;;;;;;0.93;0.70;;;;;;;10.95;63.21;98560.66;4907450;28;97029;-78
2024/02/07 09:00:30;;;;;;;0.73;0.70;;;;;;;11.06;62.78;98571.31;4927424;28;97945;-78
2024/02/07 09:02:56;;;;;;;1.33;1.02;;;;;;;11.03;63.25;98568.91;4909799;28;97933;-78
2024/02/07 09:05:22;;;;;;;2.88;0.60;;;;;;;11.02;62.87;98573.28;4912930;28;96851;-79
2024/02/07 09:07:47;;;;;;;5.15;0.90;;;;;;;10.90;63.25;98560.09;4947703;28;96933;-77
2024/02/07 09:10:23;;;;;;;1.70;0.80;;;;;;;10.86;63.38;98585.72;4936673;28;97920;-79
2024/02/07 09:12:48;;;;;;;1.27;0.80;;;;;;;10.93;63.46;98587.00;4897024;28;98419;-72
2024/02/07 09:15:14;;;;;;;0.70;0.60;;;;;;;10.83;63.57;98589.38;4923975;28;97921;-72
2024/02/07 09:17:39;;;;;;;1.73;0.75;;;;;;;10.78;63.53;98606.34;4916923;28;98754;-71
2024/02/07 09:20:06;;;;;;;0.50;0.50;;;;;;;10.77;64.01;98600.25;4923096;28;97947;-74
2024/02/07 09:22:31;;;;;;;1.42;0.82;;;;;;;10.81;63.74;98595.66;4920020;28;97918;-72
2024/02/07 09:24:57;;;;;;;1.92;0.80;;;;;;;10.63;64.76;98608.97;4915061;28;97957;-71
2024/02/07 09:27:22;;;;;;;2.55;0.80;;;;;;;10.17;64.21;98624.81;4919383;28;97214;-71
2024/02/07 09:29:48;;;;;;;2.05;1.25;;;;;;;9.67;65.16;98636.47;4912694;28;98484;-71
2024/02/07 09:32:14;;;;;;;2.95;1.10;;;;;;;9.81;65.03;98645.31;4900001;28;97887;-70
2024/02/07 09:34:43;;;;;;;2.38;1.10;;;;;;;9.84;64.81;98648.59;4917677;28;98038;-72
2024/02/07 09:37:08;;;;;;;2.28;1.35;;;;;;;9.92;64.80;98659.50;4920053;28;98683;-71
2024/02/07 09:39:34;;;;;;;1.63;1.00;;;;;;;10.05;64.83;98664.03;4917600;28;99589;-72
2024/02/07 09:42:03;;;;;;;3.58;1.05;;;;;;;9.83;64.30;98669.66;4917734;28;99440;-73
2024/02/07 09:44:31;;;;;;;2.53;1.40;;;;;;;9.40;65.36;98664.22;4903508;28;98059;-71
2024/02/07 09:46:57;;;;;;;1.83;1.55;;;;;;;9.72;65.08;98667.66;4912879;28;98135;-71
2024/02/07 09:49:24;;;;;;;1.63;1.27;;;;;;;9.90;64.87;98684.94;4917577;28;97996;-71
2024/02/07 09:51:50;;;;;;;1.15;0.95;;;;;;;9.99;64.24;98688.81;4936770;28;98096;-71
2024/02/07 09:54:18;;;;;;;3.50;1.30;;;;;;;10.11;63.47;98701.22;4909736;28;97461;-72
2024/02/07 09:56:43;;;;;;;2.83;1.00;;;;;;;10.08;63.97;98705.78;4919054;28;97605;-73
2024/02/07 09:59:10;;;;;;;0.98;0.70;;;;;;;10.17;63.46;98719.22;4917432;28;98336;-73
2024/02/07 10:01:37;;;;;;;5.85;0.95;;;;;;;10.22;63.10;98725.97;4920790;28;97902;-71
2024/02/07 10:04:04;;;;;;;1.40;0.85;;;;;;;10.12;63.07;98716.03;4918232;28;97677;-74
2024/02/07 10:06:32;;;;;;;0.95;0.75;;;;;;;10.01;62.79;98731.53;4919832;28;97375;-73
2024/02/07 10:08:58;;;;;;;1.65;0.70;;;;;;;9.98;62.99;98726.47;4916211;28;98106;-72
2024/02/07 10:11:25;;;;;;;4.63;1.23;;;;;;;9.97;62.49;98724.75;4906221;28;97843;-70
2024/02/07 10:13:50;;;;;;;2.13;1.40;;;;;;;10.07;62.32;98740.81;4911668;28;98047;-71
2024/02/07 10:16:16;;;;;;;1.20;1.10;;;;;;;10.16;62.16;98735.88;4915587;28;98901;-72
2024/02/07 10:18:44;;;;;;;3.08;1.30;;;;;;;10.20;62.14;98740.00;4913788;28;97432;-71
2024/02/07 10:21:10;;;;;;;4.97;1.10;;;;;;;10.18;62.27;98747.13;4916490;28;97797;-72
2024/02/07 10:23:36;;;;;;;2.08;1.00;;;;;;;10.18;61.86;98738.41;4907650;28;96912;-73
2024/02/07 10:26:02;;;;;;;2.55;1.00;;;;;;;10.19;61.58;98737.50;4917598;28;97439;-71
2024/02/07 10:28:27;;;;;;;1.10;0.77;;;;;;;10.04;60.86;98727.88;4920379;28;97509;-70
2024/02/07 10:30:59;;;;;;;1.13;0.70;;;;;;;10.05;60.52;98755.78;4904805;28;97443;-70
2024/02/07 10:33:35;;;;;;;4.20;1.17;;;;;;;10.10;61.26;98748.50;4918343;28;97365;-70
2024/02/07 10:36:03;;;;;;;5.45;1.10;;;;;;;10.07;61.29;98756.56;4914328;28;97462;-72
2024/02/07 10:38:29;;;;;;;1.52;1.08;;;;;;;9.83;61.08;98759.63;4917271;28;97450;-71
2024/02/07 10:40:55;;;;;;;1.92;0.90;;;;;;;9.83;61.23;98762.25;4920712;28;97522;-70
2024/02/07 10:43:27;;;;;;;2.72;1.23;;;;;;;9.79;61.12;98758.09;4902568;28;97327;-69
2024/02/07 10:46:13;;;;;;;2.75;1.58;;;;;;;9.64;60.50;98769.41;4915518;28;97429;-70
2024/02/07 10:48:39;;;;;;;2.25;1.10;;;;;;;9.51;60.53;98762.22;4915725;28;97518;-71
2024/02/07 10:51:06;;;;;;;1.70;0.75;;;;;;;9.23;61.31;98772.50;4912959;28;97580;-70
2024/02/07 10:53:32;;;;;;;2.10;0.98;;;;;;;9.35;60.54;98768.38;4930893;28;96834;-70
2024/02/07 10:55:59;;;;;;;1.02;0.70;;;;;;;9.51;60.62;98761.38;4916235;28;97230;-71
2024/02/07 10:58:26;;;;;;;2.17;0.90;;;;;;;9.48;61.05;98764.16;4896512;28;98504;-70
2024/02/07 11:00:53;;;;;;;3.55;1.20;;;;;;;9.30;61.09;98758.97;4917758;28;97956;-70
2024/02/07 11:03:23;;;;;;;0.68;0.68;;;;;;;9.32;60.36;98765.91;4901545;28;97279;-70
2024/02/07 11:05:49;;;;;;;2.45;0.80;;;;;;;9.50;60.49;98755.28;4919788;28;96864;-71
2024/02/07 11:08:15;;;;;;;1.60;0.77;;;;;;;9.52;60.39;98768.31;4921357;28;97923;-71
2024/02/07 11:10:41;;;;;;;1.10;0.80;;;;;;;9.39;60.45;98762.03;4920629;28;98401;-71
2024/02/07 11:13:13;;;;;;;1.52;0.75;;;;;;;9.37;60.70;98762.13;4902158;28;97398;-73
2024/02/07 11:15:39;;;;;;;3.90;1.08;;;;;;;9.47;60.26;98762.47;4920887;28;97537;-71
2024/02/07 11:18:06;;;;;;;1.90;0.90;;;;;;;9.50;60.18;98767.53;4917342;28;97428;-71
2024/02/07 11:20:32;;;;;;;3.70;1.20;;;;;;;9.47;60.74;98763.31;4906915;28;97510;-72
2024/02/07 11:23:01;;;;;;;3.30;1.15;;;;;;;9.27;61.00;98764.38;4910772;28;97142;-71
2024/02/07 11:25:27;;;;;;;2.88;0.90;;;;;;;9.19;60.55;98769.19;4913006;28;96876;-71
2024/02/07 11:27:53;;;;;;;10.55;1.23;;;;;;;8.95;60.71;98776.53;4918320;28;97455;-79
2024/02/07 11:30:19;;;;;;;2.55;1.05;;;;;;;8.83;60.45;98762.31;4940669;28;96388;-83
2024/02/07 11:33:00;;;;;;;4.03;1.00;;;;;;;8.82;60.79;98786.81;4942432;28;95773;-82
2024/02/07 11:52:11;;;;;;;3.85;1.02;;;;;;;8.75;61.43;98806.34;4871501;28;98167;-72
2024/02/07 11:54:37;;;;;;;2.72;1.10;;;;;;;8.79;61.07;98807.06;4858542;28;97818;-74
2024/02/07 11:57:02;;;;;;;5.13;1.73;;;;;;;8.78;61.67;98802.72;4856910;28;96875;-73
2024/02/07 11:59:28;;;;;;;4.40;1.95;;;;;;;8.70;61.43;98810.13;4874309;28;97887;-74
2024/02/07 12:01:54;;;;;;;1.92;1.15;;;;;;;8.58;61.97;98804.59;4842560;28;101382;-74
2024/02/07 12:04:20;;;;;;;5.13;1.23;;;;;;;8.50;62.20;98811.97;4857331;28;96756;-75
2024/02/07 12:06:46;;;;;;;3.20;1.20;;;;;;;8.61;61.93;98804.44;4876668;28;97137;-75
2024/02/07 12:09:11;;;;;;;7.05;1.50;;;;;;;8.65;62.06;98807.75;4846241;28;97987;-75
2024/02/07 12:11:38;;;;;;;1.65;1.00;;;;;;;8.64;62.58;98806.06;4851993;28;98184;-75
2024/02/07 12:14:03;;;;;;;4.55;1.35;;;;;;;8.62;62.89;98794.81;4863980;28;96806;-72
2024/02/07 12:16:29;;;;;;;10.40;1.70;;;;;;;8.64;62.06;98799.97;4869906;28;96705;-72
2024/02/07 12:18:55;;;;;;;4.43;2.22;;;;;;;8.68;62.12;98811.97;4881210;28;97384;-73
2024/02/07 12:21:20;;;;;;;3.90;1.40;;;;;;;8.75;61.86;98808.13;4873723;28;97355;-71
2024/02/07 12:23:46;;;;;;;7.90;2.20;;;;;;;8.71;62.12;98828.34;4841142;28;97800;-73
2024/02/07 12:26:11;;;;;;;6.07;1.60;;;;;;;8.75;62.38;98805.50;4863174;28;96999;-80
2024/02/07 12:29:24;;;;;;;2.97;1.35;;;;;;;8.86;61.51;98828.50;4874714;28;97642;-82
2024/02/07 12:32:14;;;;;;;;;;;;;;;8.81;61.90;98827.00;4877851;28;96703;-82
2024/02/07 12:34:40;;;;;;;4.53;1.20;;;;;;;8.87;61.68;98835.44;4892341;28;96555;-82
2024/02/07 12:37:06;;;;;;;3.80;1.85;;;;;;;8.70;62.50;98826.69;4881603;28;96639;-82
2024/02/07 12:39:50;;;;;;;5.45;1.70;;;;;;;8.71;62.10;98824.91;4883326;28;97554;-82
2024/02/07 12:42:18;;;;;;;6.72;2.03;;;;;;;8.48;62.98;98816.41;4904345;28;98455;-83
2024/02/07 12:45:03;;;;;;;3.60;1.25;;;;;;;8.51;62.34;98820.66;4899607;28;96335;-81
2024/02/07 12:47:28;;;;;;;4.13;1.50;;;;;;;8.61;61.69;98829.75;4887226;28;96631;-80
2024/02/07 12:49:54;;;;;;;3.00;1.30;;;;;;;8.63;62.12;98821.81;4883019;28;97671;-80
2024/02/07 12:52:21;;;;;;;3.50;1.55;;;;;;;8.65;62.55;98827.81;4866841;28;98387;-80
2024/02/07 12:58:42;;;;;;;6.03;2.10;;;;;;;8.70;61.79;98824.06;4893668;28;96522;-82